Time;durP1;ratioP1;P1;durP2;ratioP2;P2;SDS_P1;SDS_P2;PMS_P1;PMS_P2;Temp;Humidity;BMP_temperature;BMP_pressure;BME280_temperature;BME280_humidity;BME280_pressure;Samples;Min_cycle;Max_cycle;Signal;HPM_P1;HPM_P2
2023/10/17 00:02:00;;;;;;;10.00;5.10;;;8.60;99.90;;;;;;5071901;28;20565;-52
2023/10/17 00:04:27;;;;;;;4.33;3.70;;;8.70;99.90;;;;;;5071389;28;20193;-53
2023/10/17 00:06:54;;;;;;;8.57;4.77;;;8.80;99.90;;;;;;5071657;28;20212;-53
2023/10/17 00:09:29;;;;;;;4.80;4.17;;;8.70;99.90;;;;;;5071368;28;20293;-53
2023/10/17 00:14:24;;;;;;;4.83;4.07;;;8.60;99.90;;;;;;5068274;28;20229;-53
2023/10/17 00:16:55;;;;;;;5.10;4.57;;;8.70;99.90;;;;;;5069501;28;20213;-53
2023/10/17 00:19:31;;;;;;;4.67;4.17;;;8.70;99.90;;;;;;5071536;28;20197;-52
2023/10/17 00:22:02;;;;;;;6.90;4.63;;;8.80;99.90;;;;;;5071550;28;20529;-53
2023/10/17 00:24:28;;;;;;;5.83;4.47;;;9.00;99.90;;;;;;5071588;28;20203;-52
2023/10/17 00:26:53;;;;;;;4.30;3.90;;;9.00;99.90;;;;;;5072467;28;20272;-53
2023/10/17 00:29:19;;;;;;;7.23;3.47;;;9.00;99.90;;;;;;5075454;28;20281;-53
2023/10/17 00:31:46;;;;;;;6.60;5.07;;;8.90;99.90;;;;;;5074850;28;20205;-53
2023/10/17 00:34:21;;;;;;;6.30;3.90;;;8.90;99.90;;;;;;5056912;28;20213;-53
2023/10/17 00:36:50;;;;;;;10.30;4.77;;;9.00;99.90;;;;;;5071266;28;20197;-53
2023/10/17 00:39:29;;;;;;;4.10;3.57;;;9.00;99.90;;;;;;5067644;28;20207;-53
2023/10/17 00:44:40;;;;;;;6.60;4.87;;;9.00;99.90;;;;;;5068065;28;20245;-53
2023/10/17 00:47:08;;;;;;;4.63;4.23;;;9.00;99.90;;;;;;5074495;28;20216;-53
2023/10/17 00:49:44;;;;;;;5.57;3.70;;;9.00;99.90;;;;;;5051154;28;20285;-52
2023/10/17 00:52:24;;;;;;;8.43;4.43;;;9.00;99.90;;;;;;5053011;28;20231;-52
2023/10/17 00:54:53;;;;;;;5.53;4.53;;;9.00;99.90;;;;;;5072114;28;20248;-53
2023/10/17 00:57:26;;;;;;;5.27;4.77;;;9.00;99.90;;;;;;5054580;28;20205;-51
2023/10/17 00:59:56;;;;;;;7.97;5.53;;;8.90;99.90;;;;;;5075671;28;20281;-53
2023/10/17 01:02:23;;;;;;;6.50;4.97;;;8.90;99.90;;;;;;5074629;28;20225;-53
2023/10/17 01:04:52;;;;;;;4.70;3.80;;;8.90;99.90;;;;;;5074296;28;20254;-54
2023/10/17 01:07:27;;;;;;;7.03;4.87;;;9.10;99.90;;;;;;5052153;28;20252;-58
2023/10/17 01:10:00;;;;;;;4.70;3.83;;;9.20;99.90;;;;;;5071776;28;20197;-53
2023/10/17 01:12:27;;;;;;;6.40;5.17;;;9.10;99.90;;;;;;5053719;28;20196;-53
2023/10/17 01:14:54;;;;;;;6.97;4.57;;;9.00;99.90;;;;;;5074464;28;20267;-53
2023/10/17 01:17:23;;;;;;;6.37;3.63;;;8.90;99.90;;;;;;5074218;28;20193;-53
2023/10/17 01:19:53;;;;;;;7.53;4.07;;;8.90;99.90;;;;;;5057007;28;20628;-53
2023/10/17 01:22:22;;;;;;;6.47;4.70;;;9.00;99.90;;;;;;5054449;28;20264;-52
2023/10/17 01:24:48;;;;;;;9.03;4.43;;;9.10;99.90;;;;;;5070626;28;20217;-53
2023/10/17 01:27:14;;;;;;;6.73;5.40;;;9.30;99.90;;;;;;5066703;28;20200;-53
2023/10/17 01:29:44;;;;;;;6.67;4.77;;;9.30;99.90;;;;;;5070447;28;20251;-53
2023/10/17 01:32:09;;;;;;;5.67;3.57;;;9.20;99.90;;;;;;5070193;28;20198;-53
2023/10/17 01:34:36;;;;;;;5.57;4.07;;;9.30;99.90;;;;;;5075164;28;20215;-53
2023/10/17 01:37:03;;;;;;;5.30;4.53;;;9.30;99.90;;;;;;5051937;28;20833;-53
2023/10/17 01:39:29;;;;;;;5.20;4.20;;;9.30;99.90;;;;;;5069244;28;20206;-53
2023/10/17 01:41:55;;;;;;;6.87;4.73;;;9.10;99.90;;;;;;5073325;28;20206;-56
2023/10/17 01:44:20;;;;;;;4.87;4.13;;;9.00;99.90;;;;;;5058227;22;20290;-53
2023/10/17 01:46:46;;;;;;;5.53;4.43;;;9.10;99.90;;;;;;5066520;28;20606;-54
2023/10/17 01:49:12;;;;;;;6.83;4.07;;;9.20;99.90;;;;;;5066157;28;20210;-54
2023/10/17 01:51:42;;;;;;;4.90;4.00;;;9.20;99.90;;;;;;5070705;28;20239;-53
2023/10/17 01:54:12;;;;;;;5.30;3.73;;;9.20;99.90;;;;;;5068931;28;20249;-53
2023/10/17 01:56:47;;;;;;;4.53;2.83;;;9.10;99.90;;;;;;5049430;28;20208;-53
2023/10/17 01:59:17;;;;;;;3.73;2.73;;;8.80;99.90;;;;;;5067818;28;20579;-53
2023/10/17 02:01:42;;;;;;;4.30;3.60;;;8.70;99.90;;;;;;5072394;28;20241;-53
2023/10/17 02:04:16;;;;;;;3.87;3.47;;;8.80;99.90;;;;;;5074195;28;20672;-53
2023/10/17 02:06:42;;;;;;;3.17;2.87;;;9.00;99.90;;;;;;5072279;28;20193;-53
2023/10/17 02:11:54;;;;;;;5.67;3.07;;;9.00;99.90;;;;;;5070875;28;20198;-52
2023/10/17 02:14:20;;;;;;;4.67;3.30;;;9.10;99.90;;;;;;5051760;28;20279;-53
2023/10/17 02:16:46;;;;;;;3.43;2.97;;;8.90;99.90;;;;;;5072015;28;20293;-53
2023/10/17 02:19:12;;;;;;;3.63;2.63;;;9.00;99.90;;;;;;5071962;28;20655;-53
2023/10/17 02:21:43;;;;;;;3.97;3.40;;;9.10;99.90;;;;;;5073313;28;20199;-53
2023/10/17 02:24:09;;;;;;;2.50;2.30;;;9.00;99.90;;;;;;5073744;28;20679;-53
2023/10/17 02:26:42;;;;;;;2.77;2.57;;;9.20;99.90;;;;;;5070078;28;20320;-53
2023/10/17 02:29:11;;;;;;;4.70;3.10;;;9.10;99.90;;;;;;5055239;28;20251;-53
2023/10/17 02:31:38;;;;;;;2.23;2.03;;;9.10;99.90;;;;;;5073481;28;20191;-53
2023/10/17 02:34:04;;;;;;;3.07;2.67;;;9.20;99.90;;;;;;5073238;28;20230;-53
2023/10/17 02:36:29;;;;;;;4.03;2.83;;;9.10;99.90;;;;;;5073074;28;20206;-53
2023/10/17 02:38:56;;;;;;;4.33;2.53;;;9.10;99.90;;;;;;5073712;28;20974;-53
2023/10/17 02:41:22;;;;;;;4.47;2.67;;;9.10;99.90;;;;;;5073439;28;20190;-54
2023/10/17 02:43:55;;;;;;;5.00;2.87;;;9.20;99.90;;;;;;5072093;28;20222;-53
2023/10/17 02:46:26;;;;;;;5.03;4.27;;;9.20;99.90;;;;;;5070116;28;20396;-52
2023/10/17 02:48:55;;;;;;;3.37;3.03;;;9.20;99.90;;;;;;5073696;28;20251;-52
2023/10/17 02:53:53;;;;;;;3.67;3.00;;;9.10;99.90;;;;;;5075199;28;20347;-54
2023/10/17 02:56:19;;;;;;;3.50;2.57;;;9.10;99.90;;;;;;5072818;28;20226;-54
2023/10/17 02:58:59;;;;;;;2.73;2.53;;;9.00;99.90;;;;;;5072769;28;20208;-54
2023/10/17 03:01:26;;;;;;;4.93;2.53;;;9.00;99.90;;;;;;5055014;28;20231;-54
2023/10/17 03:03:52;;;;;;;4.70;2.90;;;9.00;99.90;;;;;;5056343;28;20604;-53
2023/10/17 03:06:18;;;;;;;4.53;3.33;;;9.10;99.90;;;;;;5072723;28;20193;-54
2023/10/17 03:08:51;;;;;;;5.57;3.93;;;9.00;99.90;;;;;;5072725;28;20195;-53
2023/10/17 03:11:35;;;;;;;6.53;3.53;;;9.10;99.90;;;;;;5049602;28;20592;-59
2023/10/17 03:14:12;;;;;;;3.93;3.00;;;9.10;99.90;;;;;;5069858;28;20209;-55
2023/10/17 03:16:40;;;;;;;7.53;3.00;;;8.80;99.90;;;;;;5070544;28;20192;-58
2023/10/17 03:19:06;;;;;;;11.17;3.23;;;8.90;99.90;;;;;;5067422;28;20260;-53
2023/10/17 03:21:34;;;;;;;6.33;3.83;;;9.00;99.90;;;;;;5066775;28;20207;-54
2023/10/17 03:24:10;;;;;;;3.53;2.90;;;9.00;99.90;;;;;;5072384;28;20193;-53
2023/10/17 03:26:54;;;;;;;3.13;2.60;;;8.90;99.90;;;;;;5065732;28;20198;-53
2023/10/17 03:29:20;;;;;;;4.07;3.50;;;9.10;99.90;;;;;;5067365;28;20198;-54
2023/10/17 03:31:49;;;;;;;3.60;3.27;;;9.30;99.90;;;;;;5072452;28;20268;-53
2023/10/17 03:34:19;;;;;;;3.83;3.23;;;9.40;99.90;;;;;;5068366;28;20213;-53
2023/10/17 03:36:49;;;;;;;3.40;3.10;;;9.40;99.90;;;;;;5072612;28;20230;-53
2023/10/17 03:39:20;;;;;;;7.23;2.93;;;9.40;99.90;;;;;;5054035;28;20207;-53
2023/10/17 03:41:46;;;;;;;4.60;3.03;;;9.30;99.90;;;;;;5072133;28;20185;-54
2023/10/17 03:44:18;;;;;;;3.77;3.17;;;9.20;99.90;;;;;;5067749;28;20304;-54
2023/10/17 03:46:48;;;;;;;3.73;3.23;;;9.20;99.90;;;;;;5072136;28;20202;-53
2023/10/17 03:49:18;;;;;;;3.43;3.13;;;9.20;99.90;;;;;;5069987;28;20203;-53
2023/10/17 03:51:46;;;;;;;4.43;3.10;;;9.30;99.90;;;;;;5068517;28;20705;-52
2023/10/17 03:54:17;;;;;;;3.73;3.43;;;9.20;99.90;;;;;;5071247;28;20228;-53
2023/10/17 03:56:47;;;;;;;8.17;3.67;;;9.30;99.90;;;;;;5071737;28;20225;-52
2023/10/17 04:01:48;;;;;;;4.30;3.63;;;9.20;99.90;;;;;;5070700;28;20198;-53
2023/10/17 04:04:35;;;;;;;4.30;3.90;;;9.30;99.90;;;;;;5071475;28;20306;-52
2023/10/17 04:07:04;;;;;;;4.60;4.10;;;9.30;99.90;;;;;;5071533;28;20222;-52
2023/10/17 04:09:32;;;;;;;3.60;3.30;;;9.30;99.90;;;;;;5069117;28;20711;-52
2023/10/17 04:11:58;;;;;;;3.30;3.00;;;9.20;99.90;;;;;;5071714;28;20981;-52
2023/10/17 04:14:33;;;;;;;5.30;3.80;;;9.30;99.90;;;;;;5071839;28;20691;-52
2023/10/17 04:17:02;;;;;;;5.13;4.17;;;9.30;99.90;;;;;;5067790;28;20825;-52
2023/10/17 04:19:32;;;;;;;5.07;3.87;;;9.10;99.90;;;;;;5070711;28;20202;-52
2023/10/17 04:22:02;;;;;;;4.17;3.70;;;9.20;99.90;;;;;;5067744;28;20198;-52
2023/10/17 04:24:38;;;;;;;4.23;3.40;;;9.30;99.90;;;;;;5050309;28;20616;-52
2023/10/17 04:27:18;;;;;;;4.90;3.40;;;9.30;99.90;;;;;;5069292;28;20686;-52
2023/10/17 04:29:50;;;;;;;4.37;3.97;;;9.30;99.90;;;;;;5068918;28;20220;-52
2023/10/17 04:32:19;;;;;;;5.13;3.57;;;9.30;99.90;;;;;;5053073;28;20285;-53
2023/10/17 04:34:48;;;;;;;5.33;4.67;;;9.30;99.90;;;;;;5067688;28;20223;-52
2023/10/17 04:37:24;;;;;;;4.40;4.00;;;9.50;99.90;;;;;;5071413;28;20198;-52
2023/10/17 04:39:50;;;;;;;6.17;3.97;;;9.20;99.90;;;;;;5052801;28;20221;-53
2023/10/17 04:42:25;;;;;;;3.67;3.37;;;9.20;99.90;;;;;;5067312;28;20256;-54
2023/10/17 04:44:52;;;;;;;3.83;3.40;;;9.20;99.90;;;;;;5067640;28;20228;-53
2023/10/17 04:49:50;;;;;;;6.03;4.10;;;9.20;99.90;;;;;;5071094;28;20271;-54
2023/10/17 04:52:21;;;;;;;5.27;4.40;;;9.30;99.90;;;;;;5068168;28;20235;-55
2023/10/17 04:54:48;;;;;;;4.80;3.73;;;9.40;99.90;;;;;;5045240;28;20214;-55
2023/10/17 04:57:18;;;;;;;5.97;4.20;;;9.50;99.90;;;;;;5071314;28;20234;-57
2023/10/17 05:07:58;;;;;;;4.23;3.50;;;9.60;99.90;;;;;;5066120;28;20297;-56
2023/10/17 06:18:32;;;;;;;7.73;4.03;;;9.60;99.90;;;;;;5068320;28;20344;-63
2023/10/17 06:21:06;;;;;;;5.10;4.33;;;9.70;99.90;;;;;;5069679;28;20411;-63
2023/10/17 06:34:21;;;;;;;5.43;3.90;;;9.70;99.90;;;;;;5068295;28;20219;-55
2023/10/17 06:36:58;;;;;;;4.27;3.47;;;9.80;99.90;;;;;;5064734;28;20715;-55
2023/10/17 06:39:26;;;;;;;4.67;4.20;;;9.80;99.90;;;;;;5071213;28;20193;-54
2023/10/17 06:41:55;;;;;;;4.30;3.93;;;9.90;99.90;;;;;;5071869;28;20528;-57
2023/10/17 06:44:24;;;;;;;3.97;3.43;;;9.90;99.90;;;;;;5068950;28;20586;-63
2023/10/17 06:46:55;;;;;;;6.67;3.53;;;9.90;99.90;;;;;;5054116;28;20205;-54
2023/10/17 06:49:46;;;;;;;5.70;4.20;;;9.70;99.90;;;;;;5070232;28;20189;-55
2023/10/17 06:54:41;;;;;;;8.50;4.03;;;9.90;99.90;;;;;;5067178;28;20220;-53
2023/10/17 06:57:19;;;;;;;8.63;5.23;;;10.00;99.90;;;;;;5065863;28;20721;-53
2023/10/17 06:59:54;;;;;;;10.87;7.57;;;9.90;99.90;;;;;;5066676;28;20196;-53
2023/10/17 07:02:31;;;;;;;11.20;5.40;;;10.00;99.90;;;;;;5070435;28;20264;-52
2023/10/17 07:05:00;;;;;;;10.03;5.77;;;10.00;99.90;;;;;;5056137;28;20205;-54
2023/10/17 07:07:40;;;;;;;9.00;5.57;;;10.00;99.90;;;;;;5074264;28;20201;-54
2023/10/17 07:13:32;;;;;;;4.63;3.63;;;9.90;99.90;;;;;;5068078;28;20712;-54
2023/10/17 07:16:11;;;;;;;5.63;3.70;;;9.90;99.90;;;;;;5069533;28;20202;-55
2023/10/17 07:18:51;;;;;;;6.60;3.93;;;9.70;99.90;;;;;;5069747;28;20193;-54
2023/10/17 07:21:22;;;;;;;5.93;4.43;;;9.60;99.90;;;;;;5069508;28;20205;-53
2023/10/17 07:23:48;;;;;;;4.63;4.20;;;9.70;99.90;;;;;;5047422;28;20201;-54
2023/10/17 07:26:17;;;;;;;8.47;4.40;;;9.80;99.90;;;;;;5054053;28;20574;-54
2023/10/17 07:28:52;;;;;;;5.73;4.73;;;9.80;99.90;;;;;;5053338;28;20222;-54
2023/10/17 07:31:20;;;;;;;6.60;4.50;;;9.90;99.90;;;;;;5070120;28;20228;-54
2023/10/17 07:34:07;;;;;;;4.93;3.83;;;9.90;99.90;;;;;;5063926;28;20202;-55
2023/10/17 07:36:34;;;;;;;6.30;4.73;;;9.90;99.90;;;;;;5053345;28;20203;-54
2023/10/17 07:39:00;;;;;;;7.17;3.97;;;10.10;99.90;;;;;;5072119;28;20200;-53
2023/10/17 07:41:37;;;;;;;6.27;4.53;;;10.00;99.90;;;;;;5048892;28;20814;-53
2023/10/17 07:44:19;;;;;;;6.27;3.83;;;10.00;99.90;;;;;;5069920;28;20213;-53
2023/10/17 07:46:48;;;;;;;5.30;4.80;;;10.10;99.90;;;;;;5065387;28;20284;-53
2023/10/17 07:49:16;;;;;;;6.00;4.73;;;10.20;99.90;;;;;;5072275;28;20234;-55
2023/10/17 07:51:42;;;;;;;7.67;4.20;;;10.30;99.90;;;;;;5067459;28;20279;-53
2023/10/17 07:54:08;;;;;;;6.30;4.60;;;10.40;99.90;;;;;;5067888;28;20209;-53
2023/10/17 07:56:34;;;;;;;5.63;4.03;;;10.50;99.90;;;;;;5067443;28;20628;-54
2023/10/17 07:59:07;;;;;;;4.37;3.03;;;10.70;99.90;;;;;;5053099;28;20230;-54
2023/10/17 08:01:38;;;;;;;3.13;2.83;;;10.40;99.90;;;;;;5067243;28;20204;-56
2023/10/17 08:04:17;;;;;;;7.43;3.17;;;10.60;99.90;;;;;;5067051;28;22258;-55
2023/10/17 08:06:43;;;;;;;4.00;2.43;;;10.90;99.90;;;;;;5070056;28;20598;-56
2023/10/17 08:11:54;;;;;;;3.70;2.13;;;11.20;99.90;;;;;;5068611;28;20212;-56
2023/10/17 08:14:26;;;;;;;2.83;1.87;;;11.10;99.90;;;;;;5067343;28;20223;-56
2023/10/17 08:16:55;;;;;;;5.53;2.10;;;10.90;99.90;;;;;;5068370;28;20193;-57
2023/10/17 08:19:23;;;;;;;4.27;1.70;;;11.10;99.90;;;;;;5065826;28;20213;-56
2023/10/17 08:21:59;;;;;;;4.93;2.13;;;11.10;99.90;;;;;;5068456;28;20204;-56
2023/10/17 08:29:49;;;;;;;2.20;1.37;;;11.10;99.90;;;;;;5069833;28;20194;-55
2023/10/17 08:35:02;;;;;;;3.30;1.77;;;10.80;99.90;;;;;;5067111;28;20216;-53
2023/10/17 08:37:30;;;;;;;3.93;2.60;;;11.00;99.90;;;;;;5069235;28;20197;-53
2023/10/17 08:39:57;;;;;;;2.60;2.00;;;11.10;99.90;;;;;;5071752;28;20202;-54
2023/10/17 08:44:55;;;;;;;3.50;1.80;;;11.20;99.90;;;;;;5069484;28;20215;-53
2023/10/17 08:47:25;;;;;;;4.53;2.50;;;11.40;99.90;;;;;;5052774;28;20202;-53
2023/10/17 08:49:54;;;;;;;4.23;1.93;;;11.50;99.90;;;;;;5073884;28;20574;-53
2023/10/17 08:52:24;;;;;;;7.07;2.50;;;11.50;99.90;;;;;;5067092;28;20531;-53
2023/10/17 08:54:51;;;;;;;6.47;2.60;;;11.60;99.90;;;;;;5052521;28;20253;-52
2023/10/17 08:57:17;;;;;;;3.90;2.50;;;11.70;99.90;;;;;;5058179;28;20199;-52
2023/10/17 09:04:49;;;;;;;3.00;2.33;;;11.40;99.90;;;;;;5072605;28;20234;-53
2023/10/17 09:07:28;;;;;;;2.77;2.30;;;11.70;99.90;;;;;;5073487;28;20488;-52
2023/10/17 09:10:02;;;;;;;2.83;1.93;;;11.80;99.90;;;;;;5071477;28;20196;-52
2023/10/17 09:12:28;;;;;;;2.80;1.30;;;11.90;99.90;;;;;;5072243;28;20693;-52
2023/10/17 09:14:56;;;;;;;2.53;2.03;;;12.00;99.90;;;;;;5071976;28;20224;-52
2023/10/17 09:19:52;;;;;;;3.37;1.13;;;11.50;99.90;;;;;;5068881;28;20204;-51
2023/10/17 09:22:23;;;;;;;1.20;1.07;;;11.70;99.90;;;;;;5069453;28;20216;-52
2023/10/17 09:24:50;;;;;;;3.30;1.17;;;11.70;99.90;;;;;;5074691;28;20582;-53
2023/10/17 09:27:17;;;;;;;3.10;1.30;;;11.70;99.90;;;;;;5057158;28;20296;-53
2023/10/17 09:29:52;;;;;;;1.63;1.10;;;11.90;99.90;;;;;;5056546;28;20221;-54
2023/10/17 09:32:42;;;;;;;3.40;1.97;;;12.20;99.90;;;;;;5056451;28;20663;-54
2023/10/17 09:35:18;;;;;;;2.97;1.50;;;12.20;98.00;;;;;;5072799;28;20218;-53
2023/10/17 09:37:56;;;;;;;0.90;0.90;;;12.10;98.40;;;;;;5074564;28;22813;-53
2023/10/17 09:40:31;;;;;;;1.83;0.73;;;12.10;97.80;;;;;;5073180;28;20279;-53
2023/10/17 09:42:59;;;;;;;1.07;0.73;;;11.80;96.90;;;;;;5067797;28;20227;-53
2023/10/17 09:45:33;;;;;;;1.17;0.63;;;11.90;98.60;;;;;;5055586;28;20211;-53
2023/10/17 09:48:04;;;;;;;2.57;0.40;;;12.30;93.80;;;;;;5070200;28;20712;-53
2023/10/17 09:50:34;;;;;;;0.40;0.40;;;12.30;93.60;;;;;;5070840;28;20208;-53
2023/10/17 09:53:14;;;;;;;1.93;0.67;;;12.40;94.30;;;;;;5074595;28;20223;-53
2023/10/17 09:55:46;;;;;;;1.27;0.60;;;12.50;93.90;;;;;;5071064;28;20349;-53
2023/10/17 09:58:17;;;;;;;0.87;0.60;;;12.40;93.30;;;;;;5074443;28;20224;-55
2023/10/17 10:00:48;;;;;;;1.10;0.90;;;12.80;91.70;;;;;;5073989;28;20679;-52
2023/10/17 10:03:17;;;;;;;1.07;0.83;;;12.90;93.30;;;;;;5074342;28;20193;-53
2023/10/17 10:05:42;;;;;;;1.43;0.60;;;13.10;93.60;;;;;;5074180;28;20235;-53
2023/10/17 10:08:32;;;;;;;0.70;0.70;;;12.90;91.80;;;;;;5074480;28;20193;-53
2023/10/17 10:10:59;;;;;;;1.50;1.10;;;13.00;92.20;;;;;;5071001;28;20239;-53
2023/10/17 10:13:26;;;;;;;1.27;0.50;;;13.10;92.40;;;;;;5054988;28;20201;-53
2023/10/17 10:15:59;;;;;;;0.80;0.80;;;12.90;93.40;;;;;;5075567;28;20223;-53
2023/10/17 10:18:42;;;;;;;2.47;0.87;;;12.60;92.00;;;;;;5075190;28;20288;-53
2023/10/17 10:21:08;;;;;;;2.77;0.80;;;12.70;92.70;;;;;;5074023;28;20276;-52
2023/10/17 10:23:35;;;;;;;1.10;0.83;;;12.70;93.80;;;;;;5066794;28;20285;-52
2023/10/17 10:26:19;;;;;;;2.03;0.60;;;12.60;94.50;;;;;;5073727;28;20201;-52
2023/10/17 10:28:47;;;;;;;1.20;0.57;;;12.60;93.20;;;;;;5069507;28;20215;-53
2023/10/17 10:31:21;;;;;;;2.20;0.80;;;12.50;93.60;;;;;;5069651;28;20197;-53
2023/10/17 10:34:06;;;;;;;1.73;0.70;;;12.80;92.10;;;;;;5067058;28;20197;-53
2023/10/17 10:36:33;;;;;;;3.60;1.13;;;12.60;93.80;;;;;;5068139;28;20261;-53
2023/10/17 10:39:18;;;;;;;0.80;0.80;;;12.20;93.70;;;;;;5073384;28;20221;-53
2023/10/17 10:41:56;;;;;;;4.70;1.10;;;12.10;94.00;;;;;;5069827;28;20198;-53
2023/10/17 10:44:22;;;;;;;1.30;1.07;;;12.20;95.90;;;;;;5070079;28;20243;-53
2023/10/17 10:46:47;;;;;;;1.17;1.07;;;12.40;95.80;;;;;;5054859;28;20201;-53
2023/10/17 10:49:13;;;;;;;2.07;0.93;;;12.50;94.70;;;;;;5071716;28;20634;-53
2023/10/17 10:51:47;;;;;;;2.13;0.90;;;12.70;92.70;;;;;;5051596;28;20205;-53
2023/10/17 10:54:13;;;;;;;1.43;1.17;;;12.90;92.90;;;;;;5050753;28;20227;-53
2023/10/17 10:56:38;;;;;;;1.00;0.80;;;12.80;95.20;;;;;;5073263;28;20206;-55
2023/10/17 10:59:05;;;;;;;2.57;1.10;;;12.80;95.60;;;;;;5068771;28;20197;-52
2023/10/17 11:01:30;;;;;;;1.13;0.80;;;12.90;94.20;;;;;;5072804;28;20617;-52
2023/10/17 11:03:58;;;;;;;2.17;0.70;;;13.00;93.10;;;;;;5073454;28;20200;-52
2023/10/17 11:06:27;;;;;;;2.30;0.77;;;13.00;95.60;;;;;;5067307;28;20201;-53
2023/10/17 11:08:56;;;;;;;4.33;0.90;;;12.60;93.30;;;;;;5072428;28;20232;-53
2023/10/17 11:11:22;;;;;;;1.03;0.77;;;12.70;92.90;;;;;;5054297;28;20258;-53
2023/10/17 11:13:49;;;;;;;1.97;1.57;;;12.70;93.80;;;;;;5072651;28;20213;-53
2023/10/17 11:16:21;;;;;;;1.20;0.90;;;12.70;95.30;;;;;;5071930;28;20284;-53
2023/10/17 11:18:47;;;;;;;2.37;0.90;;;12.30;94.00;;;;;;5069624;28;20193;-53
2023/10/17 11:21:16;;;;;;;1.83;1.50;;;12.20;94.80;;;;;;5074086;28;20529;-53
2023/10/17 11:23:50;;;;;;;1.60;1.50;;;12.10;96.20;;;;;;5070502;28;20189;-53
2023/10/17 11:26:21;;;;;;;1.43;1.33;;;12.30;95.40;;;;;;5069132;28;20228;-61
2023/10/17 11:28:47;;;;;;;2.77;0.77;;;12.40;96.80;;;;;;5071867;28;20201;-56
2023/10/17 11:31:21;;;;;;;2.27;0.83;;;12.50;93.80;;;;;;5048324;28;20209;-55
2023/10/17 11:33:52;;;;;;;3.03;1.33;;;12.50;93.10;;;;;;5068428;28;20197;-57
2023/10/17 11:36:20;;;;;;;1.30;0.90;;;12.40;93.30;;;;;;5071474;28;20273;-54
2023/10/17 11:38:57;;;;;;;1.60;1.40;;;12.40;94.80;;;;;;5074239;28;20193;-54
2023/10/17 11:41:31;;;;;;;1.50;1.40;;;12.60;95.20;;;;;;5071974;28;20216;-54
2023/10/17 11:44:04;;;;;;;1.77;1.40;;;12.70;95.60;;;;;;5068889;28;20275;-54
2023/10/17 11:46:39;;;;;;;1.60;1.03;;;12.90;96.00;;;;;;5049976;28;20212;-54
2023/10/17 11:49:21;;;;;;;3.67;1.10;;;13.00;94.30;;;;;;5071411;28;20296;-66
2023/10/17 11:52:09;;;;;;;0.97;0.97;;;12.50;92.60;;;;;;5068188;28;20213;-64
2023/10/17 11:54:52;;;;;;;3.47;0.80;;;12.30;93.10;;;;;;5053188;28;21026;-54
2023/10/17 11:57:22;;;;;;;1.57;0.80;;;12.30;93.50;;;;;;5073553;28;20200;-54
2023/10/17 12:02:47;;;;;;;0.40;0.40;;;12.50;92.30;;;;;;5070979;28;20208;-55
2023/10/17 12:05:20;;;;;;;1.57;0.47;;;12.50;92.70;;;;;;5067315;28;20197;-55
2023/10/17 12:07:53;;;;;;;1.27;0.97;;;12.50;92.40;;;;;;5065973;28;20252;-55
2023/10/17 12:10:20;;;;;;;1.93;0.83;;;12.60;92.50;;;;;;5069942;28;20297;-64
2023/10/17 12:12:47;;;;;;;1.57;0.83;;;12.60;92.80;;;;;;5068707;28;20284;-53
2023/10/17 12:15:20;;;;;;;0.73;0.60;;;12.60;92.30;;;;;;5068967;28;20224;-53
2023/10/17 12:17:48;;;;;;;0.97;0.70;;;12.60;92.30;;;;;;5071954;28;20559;-54
2023/10/17 12:20:13;;;;;;;1.63;1.03;;;12.60;92.50;;;;;;5066643;28;20203;-55
2023/10/17 12:22:40;;;;;;;2.10;0.90;;;12.80;92.10;;;;;;5069680;28;21064;-58
2023/10/17 12:25:06;;;;;;;2.00;1.07;;;12.70;91.70;;;;;;5053608;28;20210;-53
2023/10/17 12:27:32;;;;;;;1.60;0.80;;;12.70;92.60;;;;;;5071614;28;20199;-53
2023/10/17 12:29:58;;;;;;;2.83;1.00;;;12.30;93.00;;;;;;5073976;28;20200;-54
2023/10/17 12:32:23;;;;;;;3.70;1.30;;;12.20;93.50;;;;;;5054763;28;20201;-57
2023/10/17 12:34:49;;;;;;;1.13;0.80;;;12.30;94.70;;;;;;5074999;28;20836;-53
2023/10/17 12:37:17;;;;;;;2.23;1.00;;;12.20;93.70;;;;;;5070389;28;20280;-54
2023/10/17 12:39:43;;;;;;;1.60;1.07;;;12.40;94.10;;;;;;5072954;28;20189;-56
2023/10/17 12:42:09;;;;;;;1.20;0.77;;;12.60;92.60;;;;;;5072233;28;20252;-55
2023/10/17 12:44:36;;;;;;;1.33;1.20;;;12.80;92.20;;;;;;5072153;28;20225;-55
2023/10/17 12:47:01;;;;;;;2.10;0.93;;;12.90;93.10;;;;;;5053880;28;20251;-55
2023/10/17 12:49:27;;;;;;;2.40;1.13;;;12.80;94.00;;;;;;5073078;28;20275;-54
2023/10/17 12:51:53;;;;;;;1.80;0.63;;;12.60;93.10;;;;;;5069638;28;20204;-55
2023/10/17 12:54:19;;;;;;;0.50;0.50;;;12.50;93.00;;;;;;5073884;28;20654;-55
2023/10/17 12:56:44;;;;;;;2.10;0.80;;;12.60;93.10;;;;;;5073231;28;20203;-54
2023/10/17 12:59:13;;;;;;;1.27;0.93;;;12.80;91.80;;;;;;5071384;28;20197;-55
2023/10/17 13:01:41;;;;;;;5.00;4.30;;;12.90;92.40;;;;;;5073849;28;20918;-55
2023/10/17 13:04:09;;;;;;;11.93;7.27;;;12.60;94.10;;;;;;5071856;28;20193;-57
2023/10/17 13:06:35;;;;;;;4.27;2.20;;;12.40;94.80;;;;;;5051237;28;20556;-56
2023/10/17 13:09:01;;;;;;;2.43;1.90;;;12.60;95.30;;;;;;5073057;28;20186;-54
2023/10/17 13:11:27;;;;;;;3.90;3.27;;;12.60;95.70;;;;;;5072849;28;20258;-54
2023/10/17 13:13:54;;;;;;;0.90;0.90;;;12.50;96.20;;;;;;5071996;28;20198;-59
2023/10/17 13:16:21;;;;;;;2.80;1.00;;;12.40;95.60;;;;;;5056435;28;20197;-57
2023/10/17 13:18:47;;;;;;;2.00;1.33;;;12.30;96.00;;;;;;5071439;28;20201;-54
2023/10/17 13:21:14;;;;;;;1.97;1.17;;;12.30;96.70;;;;;;5070820;28;20192;-68
2023/10/17 13:23:40;;;;;;;3.70;1.33;;;12.30;96.40;;;;;;5070718;28;20219;-66
2023/10/17 13:26:11;;;;;;;4.43;2.47;;;12.20;96.60;;;;;;5071054;28;20201;-53
2023/10/17 13:28:38;;;;;;;3.03;1.20;;;12.30;95.60;;;;;;5072364;28;20201;-65
2023/10/17 13:31:12;;;;;;;2.60;2.40;;;12.40;96.50;;;;;;5071573;28;20929;-53
2023/10/17 13:33:39;;;;;;;3.30;2.77;;;12.60;95.40;;;;;;5074705;28;20193;-60
2023/10/17 13:36:15;;;;;;;6.67;3.80;;;12.70;95.00;;;;;;5056085;28;20223;-60
2023/10/17 13:38:41;;;;;;;8.67;4.80;;;13.00;94.90;;;;;;5067602;28;20247;-67
2023/10/17 13:41:11;;;;;;;5.67;4.87;;;12.80;94.10;;;;;;5056611;28;20201;-55
2023/10/17 13:43:41;;;;;;;2.57;1.03;;;12.50;95.10;;;;;;5072258;28;20222;-55
2023/10/17 13:46:13;;;;;;;2.10;0.90;;;12.60;94.30;;;;;;5065045;28;20193;-55
2023/10/17 13:48:48;;;;;;;5.80;1.30;;;12.30;95.10;;;;;;5067077;28;20197;-54
2023/10/17 13:51:15;;;;;;;2.30;1.23;;;12.60;94.80;;;;;;5070567;28;20227;-54
2023/10/17 13:53:44;;;;;;;2.07;1.07;;;12.70;94.40;;;;;;5069743;28;20266;-54
2023/10/17 13:56:20;;;;;;;2.20;1.30;;;12.80;95.90;;;;;;5074964;28;20630;-56
2023/10/17 13:58:49;;;;;;;3.77;2.47;;;12.80;97.50;;;;;;5050519;28;20213;-56
2023/10/17 14:01:33;;;;;;;3.70;2.60;;;12.70;95.30;;;;;;5071632;28;20266;-56
2023/10/17 14:04:00;;;;;;;1.63;1.20;;;12.60;96.00;;;;;;5067999;28;20193;-57
2023/10/17 14:06:27;;;;;;;4.80;1.47;;;12.60;96.60;;;;;;5039762;28;20216;-57
2023/10/17 14:08:55;;;;;;;2.87;1.20;;;12.90;96.10;;;;;;5070814;28;20723;-56
2023/10/17 14:11:21;;;;;;;2.10;1.13;;;13.40;94.90;;;;;;5072522;28;20201;-56
2023/10/17 14:13:49;;;;;;;1.87;1.10;;;13.30;94.40;;;;;;5075793;28;20197;-56
2023/10/17 14:16:15;;;;;;;2.13;1.37;;;13.30;95.50;;;;;;5056675;28;20991;-55
2023/10/17 14:18:43;;;;;;;2.60;1.43;;;13.20;95.40;;;;;;5072863;28;20244;-54
2023/10/17 14:23:57;;;;;;;1.50;1.20;;;13.50;94.90;;;;;;5069671;28;20211;-56
2023/10/17 14:26:27;;;;;;;3.47;1.10;;;13.60;95.00;;;;;;5071748;28;20220;-56
2023/10/17 14:28:54;;;;;;;3.27;1.40;;;13.50;94.60;;;;;;5066291;28;20216;-55
2023/10/17 14:31:20;;;;;;;3.63;2.63;;;13.50;95.00;;;;;;5052053;28;20193;-55
2023/10/17 14:33:45;;;;;;;3.53;1.60;;;13.40;94.10;;;;;;5070804;28;20216;-55
2023/10/17 14:36:13;;;;;;;1.73;1.50;;;13.70;94.00;;;;;;5068180;28;20197;-56
2023/10/17 14:38:38;;;;;;;1.27;1.13;;;13.90;94.20;;;;;;5072352;28;20232;-56
2023/10/17 14:41:08;;;;;;;2.10;1.17;;;13.90;94.50;;;;;;5066961;28;20209;-56
2023/10/17 14:43:35;;;;;;;1.03;1.03;;;14.00;94.10;;;;;;5068705;28;20246;-57
2023/10/17 14:46:01;;;;;;;1.37;1.20;;;13.90;94.20;;;;;;5069406;28;20691;-63
2023/10/17 14:48:27;;;;;;;1.57;1.23;;;13.90;95.10;;;;;;5053238;28;20196;-55
2023/10/17 14:50:53;;;;;;;1.67;1.20;;;13.80;96.50;;;;;;5071930;28;20267;-55
2023/10/17 14:53:21;;;;;;;2.20;1.27;;;13.80;96.50;;;;;;5065957;28;20421;-57
2023/10/17 14:55:57;;;;;;;1.53;1.03;;;13.70;96.80;;;;;;5052894;28;20205;-58
2023/10/17 14:58:23;;;;;;;3.40;1.40;;;13.70;96.80;;;;;;5067903;28;20197;-54
2023/10/17 15:00:49;;;;;;;2.90;1.17;;;13.70;96.90;;;;;;5070557;28;20284;-57
2023/10/17 15:03:14;;;;;;;1.90;1.33;;;13.60;95.60;;;;;;5071287;28;20277;-57
2023/10/17 15:05:41;;;;;;;2.03;1.10;;;13.60;94.10;;;;;;5069392;28;20209;-56
2023/10/17 15:08:07;;;;;;;2.03;1.00;;;13.60;93.10;;;;;;5071211;28;20194;-56
2023/10/17 15:10:33;;;;;;;2.03;1.47;;;13.60;93.90;;;;;;5072817;28;20223;-56
2023/10/17 15:12:59;;;;;;;7.43;1.70;;;13.50;94.00;;;;;;5070227;28;20681;-54
2023/10/17 15:15:24;;;;;;;2.30;1.17;;;13.50;94.70;;;;;;5068719;28;20244;-55
2023/10/17 15:17:50;;;;;;;3.23;1.60;;;13.40;94.30;;;;;;5048936;28;20201;-56
2023/10/17 15:20:16;;;;;;;4.67;1.13;;;12.90;95.60;;;;;;5048680;28;20618;-56